TimeCDT,TemperatureF,Dew PointF,Humidity,Sea Level PressureIn,VisibilityMPH,Wind Direction,Wind SpeedMPH,Gust SpeedMPH,PrecipitationIn,Events,Conditions,WindDirDegrees,DateUTC
12:53 AM,70.0,66.9,90,30.00,10.0,Calm,Calm,-,N/A,,Clear,0,2013-05-17 05:53:00
1:53 AM,72.0,68.0,87,30.00,10.0,South,4.6,-,N/A,,Clear,170,2013-05-17 06:53:00
2:53 AM,72.0,68.0,87,29.99,10.0,South,4.6,-,N/A,,Mostly Cloudy,170,2013-05-17 07:53:00
3:53 AM,72.0,68.0,87,29.99,9.0,South,4.6,-,N/A,,Mostly Cloudy,170,2013-05-17 08:53:00
4:53 AM,71.1,68.0,90,30.00,7.0,SSE,3.5,-,N/A,,Overcast,160,2013-05-17 09:53:00
5:46 AM,71.6,69.8,94,30.01,8.0,Calm,Calm,-,N/A,,Overcast,0,2013-05-17 10:46:00
5:53 AM,72.0,69.1,91,30.01,8.0,Calm,Calm,-,N/A,,Overcast,0,2013-05-17 10:53:00
7:11 AM,73.4,69.8,88,30.03,5.0,SSE,4.6,-,N/A,,Overcast,160,2013-05-17 12:11:00
7:37 AM,75.2,71.6,89,30.03,7.0,SSE,8.1,-,N/A,,Overcast,160,2013-05-17 12:37:00
7:53 AM,73.9,70.0,87,30.04,5.0,South,6.9,-,0.00,Rain,Light Rain,170,2013-05-17 12:53:00
8:21 AM,75.2,71.6,89,30.04,8.0,South,6.9,-,0.00,,Overcast,170,2013-05-17 13:21:00
8:29 AM,75.2,71.6,89,30.04,9.0,South,5.8,-,0.00,,Overcast,170,2013-05-17 13:29:00
8:53 AM,77.0,71.1,82,30.05,10.0,South,8.1,-,0.00,,Overcast,180,2013-05-17 13:53:00
9:00 AM,77.0,71.6,83,30.04,10.0,South,8.1,-,N/A,,Overcast,180,2013-05-17 14:00:00
9:53 AM,78.1,70.0,76,30.06,10.0,South,10.4,-,N/A,,Mostly Cloudy,180,2013-05-17 14:53:00
10:07 AM,78.8,69.8,74,30.05,10.0,South,9.2,-,N/A,,Mostly Cloudy,190,2013-05-17 15:07:00
10:53 AM,80.1,69.1,69,30.07,10.0,South,9.2,17.3,N/A,,Mostly Cloudy,190,2013-05-17 15:53:00
11:41 AM,80.6,69.8,70,30.07,10.0,South,11.5,-,N/A,,Mostly Cloudy,180,2013-05-17 16:41:00
11:53 AM,80.1,69.1,69,30.07,10.0,South,8.1,-,N/A,,Scattered Clouds,190,2013-05-17 16:53:00
12:53 PM,82.0,70.0,67,30.07,10.0,South,10.4,-,N/A,,Mostly Cloudy,190,2013-05-17 17:53:00
1:20 PM,80.6,69.8,70,30.06,10.0,South,9.2,-,N/A,,Mostly Cloudy,180,2013-05-17 18:20:00
1:39 PM,82.4,69.8,66,30.06,10.0,SSW,11.5,-,N/A,,Scattered Clouds,210,2013-05-17 18:39:00
2:53 PM,82.9,69.1,63,30.05,10.0,South,9.2,17.3,N/A,,Clear,190,2013-05-17 19:53:00
3:53 PM,82.0,69.1,65,30.04,10.0,South,9.2,-,N/A,,Partly Cloudy,180,2013-05-17 20:53:00
4:26 PM,80.6,69.8,70,30.02,10.0,South,11.5,-,N/A,,Mostly Cloudy,170,2013-05-17 21:26:00
4:44 PM,80.6,69.8,70,30.02,10.0,SSE,11.5,-,N/A,,Mostly Cloudy,160,2013-05-17 21:44:00
4:53 PM,80.1,70.0,71,30.02,10.0,SSE,10.4,-,N/A,,Scattered Clouds,160,2013-05-17 21:53:00
5:53 PM,80.1,70.0,71,30.01,10.0,SSE,12.7,-,N/A,,Scattered Clouds,150,2013-05-17 22:53:00
6:33 PM,78.8,71.6,78,30.00,9.0,SSE,10.4,-,N/A,,Mostly Cloudy,160,2013-05-17 23:33:00
6:53 PM,77.0,70.0,79,30.01,10.0,South,6.9,-,N/A,,Mostly Cloudy,180,2013-05-17 23:53:00
7:13 PM,77.0,69.8,78,30.01,8.0,Variable,4.6,-,N/A,,Partly Cloudy,0,2013-05-18 00:13:00
7:53 PM,75.0,71.1,87,30.02,8.0,SSE,6.9,-,N/A,,Partly Cloudy,160,2013-05-18 00:53:00
8:53 PM,75.0,71.1,87,30.04,9.0,South,8.1,-,N/A,,Mostly Cloudy,170,2013-05-18 01:53:00
9:53 PM,75.0,71.1,87,30.04,8.0,South,8.1,-,N/A,,Mostly Cloudy,170,2013-05-18 02:53:00
10:53 PM,73.9,71.1,91,30.05,8.0,South,8.1,-,N/A,,Mostly Cloudy,170,2013-05-18 03:53:00
11:44 PM,75.2,69.8,83,30.05,10.0,South,5.8,-,N/A,,Mostly Cloudy,190,2013-05-18 04:44:00
11:53 PM,75.0,70.0,84,30.06,10.0,South,8.1,-,N/A,,Mostly Cloudy,180,2013-05-18 04:53:00